sensor_id;sensor_type;location;lat;lon;timestamp;temperature;humidity
53264;DHT22;39153;52.680;6.172;2024-02-23T00:01:44;5.40;99.90
53264;DHT22;39153;52.680;6.172;2024-02-23T00:04:10;5.40;99.90
53264;DHT22;39153;52.680;6.172;2024-02-23T00:06:36;5.10;99.90
53264;DHT22;39153;52.680;6.172;2024-02-23T00:09:02;5.40;99.90
53264;DHT22;39153;52.680;6.172;2024-02-23T00:11:27;5.30;99.90
53264;DHT22;39153;52.680;6.172;2024-02-23T00:13:57;5.30;99.90
53264;DHT22;39153;52.680;6.172;2024-02-23T00:16:23;5.00;99.90
53264;DHT22;39153;52.680;6.172;2024-02-23T00:18:48;5.30;99.90
53264;DHT22;39153;52.680;6.172;2024-02-23T00:21:14;4.90;99.90
53264;DHT22;39153;52.680;6.172;2024-02-23T00:23:40;5.00;99.90
53264;DHT22;39153;52.680;6.172;2024-02-23T00:26:05;5.40;99.90
53264;DHT22;39153;52.680;6.172;2024-02-23T00:28:31;4.90;99.90
53264;DHT22;39153;52.680;6.172;2024-02-23T00:30:57;5.10;99.90
53264;DHT22;39153;52.680;6.172;2024-02-23T00:33:22;4.70;99.90
53264;DHT22;39153;52.680;6.172;2024-02-23T00:35:48;5.00;99.90
53264;DHT22;39153;52.680;6.172;2024-02-23T00:38:14;5.20;99.90
53264;DHT22;39153;52.680;6.172;2024-02-23T00:40:40;4.70;99.90
53264;DHT22;39153;52.680;6.172;2024-02-23T00:43:05;4.60;99.90
53264;DHT22;39153;52.680;6.172;2024-02-23T00:45:31;4.80;99.90
53264;DHT22;39153;52.680;6.172;2024-02-23T00:47:57;5.00;99.90
53264;DHT22;39153;52.680;6.172;2024-02-23T00:50:23;5.00;99.90
53264;DHT22;39153;52.680;6.172;2024-02-23T00:52:52;4.90;99.90
53264;DHT22;39153;52.680;6.172;2024-02-23T00:55:18;4.50;99.90
53264;DHT22;39153;52.680;6.172;2024-02-23T00:57:44;4.90;99.90
53264;DHT22;39153;52.680;6.172;2024-02-23T01:00:11;4.80;99.90
53264;DHT22;39153;52.680;6.172;2024-02-23T01:02:38;5.00;99.90
53264;DHT22;39153;52.680;6.172;2024-02-23T01:05:05;5.10;99.90
53264;DHT22;39153;52.680;6.172;2024-02-23T01:07:34;5.00;99.90
53264;DHT22;39153;52.680;6.172;2024-02-23T01:10:00;5.10;99.90
53264;DHT22;39153;52.680;6.172;2024-02-23T01:12:26;5.00;99.90
53264;DHT22;39153;52.680;6.172;2024-02-23T01:14:53;5.00;99.90
53264;DHT22;39153;52.680;6.172;2024-02-23T01:17:19;4.70;99.90
53264;DHT22;39153;52.680;6.172;2024-02-23T01:19:44;4.80;99.90
53264;DHT22;39153;52.680;6.172;2024-02-23T01:22:10;5.10;99.90
53264;DHT22;39153;52.680;6.172;2024-02-23T01:24:36;4.90;99.90
53264;DHT22;39153;52.680;6.172;2024-02-23T01:27:02;5.00;99.90
53264;DHT22;39153;52.680;6.172;2024-02-23T01:29:27;5.00;99.90
53264;DHT22;39153;52.680;6.172;2024-02-23T01:31:53;5.20;99.90
53264;DHT22;39153;52.680;6.172;2024-02-23T01:34:22;5.50;99.90
53264;DHT22;39153;52.680;6.172;2024-02-23T01:36:47;5.30;99.90
53264;DHT22;39153;52.680;6.172;2024-02-23T01:39:13;5.40;99.90
53264;DHT22;39153;52.680;6.172;2024-02-23T01:41:39;5.50;99.90
53264;DHT22;39153;52.680;6.172;2024-02-23T01:44:05;5.60;99.90
53264;DHT22;39153;52.680;6.172;2024-02-23T01:46:31;5.90;99.90
53264;DHT22;39153;52.680;6.172;2024-02-23T01:48:57;5.80;99.90
53264;DHT22;39153;52.680;6.172;2024-02-23T01:51:24;6.00;99.90
53264;DHT22;39153;52.680;6.172;2024-02-23T01:53:50;5.70;99.90
53264;DHT22;39153;52.680;6.172;2024-02-23T01:56:17;5.80;99.90
53264;DHT22;39153;52.680;6.172;2024-02-23T01:58:45;6.00;99.90
53264;DHT22;39153;52.680;6.172;2024-02-23T02:01:11;5.90;99.90
53264;DHT22;39153;52.680;6.172;2024-02-23T02:03:40;5.80;99.90
53264;DHT22;39153;52.680;6.172;2024-02-23T02:06:06;5.90;99.90
53264;DHT22;39153;52.680;6.172;2024-02-23T02:08:33;5.80;99.90
53264;DHT22;39153;52.680;6.172;2024-02-23T02:10:59;5.80;99.90
53264;DHT22;39153;52.680;6.172;2024-02-23T02:13:24;5.90;99.90
53264;DHT22;39153;52.680;6.172;2024-02-23T02:15:50;5.90;99.90
53264;DHT22;39153;52.680;6.172;2024-02-23T02:18:16;6.00;99.90
53264;DHT22;39153;52.680;6.172;2024-02-23T02:20:51;5.80;99.90
53264;DHT22;39153;52.680;6.172;2024-02-23T02:23:20;5.90;99.90
53264;DHT22;39153;52.680;6.172;2024-02-23T02:25:55;6.00;99.90
53264;DHT22;39153;52.680;6.172;2024-02-23T02:28:22;5.90;99.90
53264;DHT22;39153;52.680;6.172;2024-02-23T02:30:52;5.80;99.90
53264;DHT22;39153;52.680;6.172;2024-02-23T02:33:20;5.90;99.90
53264;DHT22;39153;52.680;6.172;2024-02-23T02:35:46;5.80;99.90
53264;DHT22;39153;52.680;6.172;2024-02-23T02:38:12;5.90;99.90
53264;DHT22;39153;52.680;6.172;2024-02-23T02:40:38;6.20;99.90
53264;DHT22;39153;52.680;6.172;2024-02-23T02:43:04;5.70;99.90
53264;DHT22;39153;52.680;6.172;2024-02-23T02:45:31;5.60;99.90
53264;DHT22;39153;52.680;6.172;2024-02-23T02:47:56;5.90;99.90
53264;DHT22;39153;52.680;6.172;2024-02-23T02:50:22;5.70;99.90
53264;DHT22;39153;52.680;6.172;2024-02-23T02:52:48;6.30;99.90
53264;DHT22;39153;52.680;6.172;2024-02-23T02:55:13;5.80;99.90
53264;DHT22;39153;52.680;6.172;2024-02-23T02:57:39;5.80;99.90
53264;DHT22;39153;52.680;6.172;2024-02-23T03:00:05;5.90;99.90
53264;DHT22;39153;52.680;6.172;2024-02-23T03:02:35;5.70;99.90
53264;DHT22;39153;52.680;6.172;2024-02-23T03:05:00;5.60;99.90
53264;DHT22;39153;52.680;6.172;2024-02-23T03:07:26;5.70;99.90
53264;DHT22;39153;52.680;6.172;2024-02-23T03:09:52;5.80;99.90
53264;DHT22;39153;52.680;6.172;2024-02-23T03:12:18;5.60;99.90
53264;DHT22;39153;52.680;6.172;2024-02-23T03:14:44;5.70;99.90
53264;DHT22;39153;52.680;6.172;2024-02-23T03:17:09;5.60;99.90
53264;DHT22;39153;52.680;6.172;2024-02-23T03:19:36;5.60;99.90
53264;DHT22;39153;52.680;6.172;2024-02-23T03:22:02;5.40;99.90
53264;DHT22;39153;52.680;6.172;2024-02-23T03:24:27;5.50;99.90
53264;DHT22;39153;52.680;6.172;2024-02-23T03:26:53;5.50;99.90
53264;DHT22;39153;52.680;6.172;2024-02-23T03:29:19;5.40;99.90
53264;DHT22;39153;52.680;6.172;2024-02-23T03:31:45;5.60;99.90
53264;DHT22;39153;52.680;6.172;2024-02-23T03:34:11;5.50;99.90
53264;DHT22;39153;52.680;6.172;2024-02-23T03:36:38;5.40;99.90
53264;DHT22;39153;52.680;6.172;2024-02-23T03:39:04;5.30;99.90
53264;DHT22;39153;52.680;6.172;2024-02-23T03:41:29;5.40;99.90
53264;DHT22;39153;52.680;6.172;2024-02-23T03:43:55;5.30;99.90
53264;DHT22;39153;52.680;6.172;2024-02-23T03:46:21;5.20;99.90
53264;DHT22;39153;52.680;6.172;2024-02-23T03:48:47;5.10;99.90
53264;DHT22;39153;52.680;6.172;2024-02-23T03:51:13;5.20;99.90
53264;DHT22;39153;52.680;6.172;2024-02-23T03:53:39;5.20;99.90
53264;DHT22;39153;52.680;6.172;2024-02-23T03:56:04;5.00;99.90
53264;DHT22;39153;52.680;6.172;2024-02-23T03:58:30;5.20;99.90
53264;DHT22;39153;52.680;6.172;2024-02-23T04:00:56;5.20;99.90
53264;DHT22;39153;52.680;6.172;2024-02-23T04:03:21;5.20;99.90
53264;DHT22;39153;52.680;6.172;2024-02-23T04:05:47;5.40;99.90
53264;DHT22;39153;52.680;6.172;2024-02-23T04:08:13;5.30;99.90
53264;DHT22;39153;52.680;6.172;2024-02-23T04:10:38;5.20;99.90
53264;DHT22;39153;52.680;6.172;2024-02-23T04:13:04;5.30;99.90
53264;DHT22;39153;52.680;6.172;2024-02-23T04:15:30;5.20;99.90
53264;DHT22;39153;52.680;6.172;2024-02-23T04:17:55;5.20;99.90
53264;DHT22;39153;52.680;6.172;2024-02-23T04:20:21;5.30;99.90
53264;DHT22;39153;52.680;6.172;2024-02-23T04:22:47;5.30;99.90
53264;DHT22;39153;52.680;6.172;2024-02-23T04:25:13;5.20;99.90
53264;DHT22;39153;52.680;6.172;2024-02-23T04:27:38;5.20;99.90
53264;DHT22;39153;52.680;6.172;2024-02-23T04:30:05;5.20;99.90
53264;DHT22;39153;52.680;6.172;2024-02-23T04:32:31;5.10;99.90
53264;DHT22;39153;52.680;6.172;2024-02-23T04:34:57;5.40;99.90
53264;DHT22;39153;52.680;6.172;2024-02-23T04:37:22;5.20;99.90
53264;DHT22;39153;52.680;6.172;2024-02-23T04:39:48;5.40;99.90
53264;DHT22;39153;52.680;6.172;2024-02-23T04:42:14;5.20;99.90
53264;DHT22;39153;52.680;6.172;2024-02-23T04:44:42;5.30;99.90
53264;DHT22;39153;52.680;6.172;2024-02-23T04:47:08;5.40;99.90
53264;DHT22;39153;52.680;6.172;2024-02-23T04:49:34;5.10;99.90
53264;DHT22;39153;52.680;6.172;2024-02-23T04:52:00;5.20;99.90
53264;DHT22;39153;52.680;6.172;2024-02-23T04:54:26;5.10;99.90
53264;DHT22;39153;52.680;6.172;2024-02-23T04:56:52;5.30;99.90
53264;DHT22;39153;52.680;6.172;2024-02-23T04:59:18;5.50;99.90
53264;DHT22;39153;52.680;6.172;2024-02-23T05:01:43;5.00;99.90
53264;DHT22;39153;52.680;6.172;2024-02-23T05:04:09;5.10;99.90
53264;DHT22;39153;52.680;6.172;2024-02-23T05:06:35;5.00;99.90
53264;DHT22;39153;52.680;6.172;2024-02-23T05:09:01;5.20;99.90
53264;DHT22;39153;52.680;6.172;2024-02-23T05:11:27;5.20;99.90
53264;DHT22;39153;52.680;6.172;2024-02-23T05:13:53;5.10;99.90
53264;DHT22;39153;52.680;6.172;2024-02-23T05:16:18;5.30;99.90
53264;DHT22;39153;52.680;6.172;2024-02-23T05:18:44;5.30;99.90
53264;DHT22;39153;52.680;6.172;2024-02-23T05:21:12;5.00;99.90
53264;DHT22;39153;52.680;6.172;2024-02-23T05:23:38;5.30;99.90
53264;DHT22;39153;52.680;6.172;2024-02-23T05:26:03;5.00;99.90
53264;DHT22;39153;52.680;6.172;2024-02-23T05:28:29;5.00;99.90
53264;DHT22;39153;52.680;6.172;2024-02-23T05:30:55;5.00;99.90
53264;DHT22;39153;52.680;6.172;2024-02-23T05:33:22;5.20;99.90
53264;DHT22;39153;52.680;6.172;2024-02-23T05:35:48;5.00;99.90
53264;DHT22;39153;52.680;6.172;2024-02-23T05:38:15;5.10;99.90
53264;DHT22;39153;52.680;6.172;2024-02-23T05:40:41;5.00;99.90
53264;DHT22;39153;52.680;6.172;2024-02-23T05:43:06;5.10;99.90
53264;DHT22;39153;52.680;6.172;2024-02-23T05:45:32;5.00;99.90
53264;DHT22;39153;52.680;6.172;2024-02-23T05:47:58;5.10;99.90
53264;DHT22;39153;52.680;6.172;2024-02-23T05:50:24;4.90;99.90
53264;DHT22;39153;52.680;6.172;2024-02-23T05:52:49;4.80;99.90
53264;DHT22;39153;52.680;6.172;2024-02-23T05:55:15;4.80;99.90
53264;DHT22;39153;52.680;6.172;2024-02-23T05:57:41;4.80;99.90
53264;DHT22;39153;52.680;6.172;2024-02-23T06:00:08;4.90;99.90
53264;DHT22;39153;52.680;6.172;2024-02-23T06:02:33;4.70;99.90
53264;DHT22;39153;52.680;6.172;2024-02-23T06:04:59;4.70;99.90
53264;DHT22;39153;52.680;6.172;2024-02-23T06:07:25;4.90;99.90
53264;DHT22;39153;52.680;6.172;2024-02-23T06:09:55;4.90;99.90
53264;DHT22;39153;52.680;6.172;2024-02-23T06:12:22;4.90;99.90
53264;DHT22;39153;52.680;6.172;2024-02-23T06:14:47;4.90;99.90
53264;DHT22;39153;52.680;6.172;2024-02-23T06:17:13;4.80;99.90
53264;DHT22;39153;52.680;6.172;2024-02-23T06:19:38;4.80;99.90
53264;DHT22;39153;52.680;6.172;2024-02-23T06:22:04;5.00;99.90
53264;DHT22;39153;52.680;6.172;2024-02-23T06:24:30;4.90;99.90
53264;DHT22;39153;52.680;6.172;2024-02-23T06:26:55;5.10;99.90
53264;DHT22;39153;52.680;6.172;2024-02-23T06:29:23;4.90;99.90
53264;DHT22;39153;52.680;6.172;2024-02-23T06:31:49;4.90;99.90
53264;DHT22;39153;52.680;6.172;2024-02-23T06:34:15;5.50;99.90
53264;DHT22;39153;52.680;6.172;2024-02-23T06:36:42;5.10;99.90
53264;DHT22;39153;52.680;6.172;2024-02-23T06:39:07;5.30;99.90
53264;DHT22;39153;52.680;6.172;2024-02-23T06:41:34;5.20;99.90
53264;DHT22;39153;52.680;6.172;2024-02-23T06:44:00;5.20;99.90
53264;DHT22;39153;52.680;6.172;2024-02-23T06:46:26;5.20;99.90
53264;DHT22;39153;52.680;6.172;2024-02-23T06:48:51;5.10;99.90
53264;DHT22;39153;52.680;6.172;2024-02-23T06:51:17;5.20;99.90
53264;DHT22;39153;52.680;6.172;2024-02-23T06:53:43;5.30;99.90
53264;DHT22;39153;52.680;6.172;2024-02-23T06:56:08;5.60;99.90
53264;DHT22;39153;52.680;6.172;2024-02-23T06:58:34;5.20;99.90
53264;DHT22;39153;52.680;6.172;2024-02-23T07:01:01;5.30;99.90
53264;DHT22;39153;52.680;6.172;2024-02-23T07:03:28;5.40;99.90
53264;DHT22;39153;52.680;6.172;2024-02-23T07:05:55;5.40;99.90
53264;DHT22;39153;52.680;6.172;2024-02-23T07:08:21;5.40;99.90
53264;DHT22;39153;52.680;6.172;2024-02-23T07:10:46;5.40;99.90
53264;DHT22;39153;52.680;6.172;2024-02-23T07:13:12;5.50;99.90
53264;DHT22;39153;52.680;6.172;2024-02-23T07:15:37;5.40;99.90
53264;DHT22;39153;52.680;6.172;2024-02-23T07:18:04;5.50;99.90
53264;DHT22;39153;52.680;6.172;2024-02-23T07:20:30;5.40;99.90
53264;DHT22;39153;52.680;6.172;2024-02-23T07:22:55;5.40;99.90
53264;DHT22;39153;52.680;6.172;2024-02-23T07:25:21;5.60;99.90
53264;DHT22;39153;52.680;6.172;2024-02-23T07:27:47;5.50;99.90
53264;DHT22;39153;52.680;6.172;2024-02-23T07:30:16;5.70;99.90
53264;DHT22;39153;52.680;6.172;2024-02-23T07:32:43;5.60;99.90
53264;DHT22;39153;52.680;6.172;2024-02-23T07:35:09;5.50;99.90
53264;DHT22;39153;52.680;6.172;2024-02-23T07:37:35;5.60;99.90
53264;DHT22;39153;52.680;6.172;2024-02-23T07:40:01;5.60;99.90
53264;DHT22;39153;52.680;6.172;2024-02-23T07:42:29;5.60;99.90
53264;DHT22;39153;52.680;6.172;2024-02-23T07:44:55;5.60;99.90
53264;DHT22;39153;52.680;6.172;2024-02-23T07:47:21;5.70;99.90
53264;DHT22;39153;52.680;6.172;2024-02-23T07:49:47;5.60;99.90
53264;DHT22;39153;52.680;6.172;2024-02-23T07:52:13;5.70;99.90
53264;DHT22;39153;52.680;6.172;2024-02-23T07:54:38;5.70;99.90
53264;DHT22;39153;52.680;6.172;2024-02-23T07:57:04;5.70;99.90
53264;DHT22;39153;52.680;6.172;2024-02-23T07:59:31;5.70;99.90
53264;DHT22;39153;52.680;6.172;2024-02-23T08:01:57;5.70;99.90
53264;DHT22;39153;52.680;6.172;2024-02-23T08:04:22;5.70;99.90
53264;DHT22;39153;52.680;6.172;2024-02-23T08:06:48;5.70;99.90
53264;DHT22;39153;52.680;6.172;2024-02-23T08:09:14;5.70;99.90
53264;DHT22;39153;52.680;6.172;2024-02-23T08:11:40;6.80;99.90
53264;DHT22;39153;52.680;6.172;2024-02-23T08:14:06;5.70;99.90
53264;DHT22;39153;52.680;6.172;2024-02-23T08:16:32;5.80;99.90
53264;DHT22;39153;52.680;6.172;2024-02-23T08:18:58;5.80;99.90
53264;DHT22;39153;52.680;6.172;2024-02-23T08:21:25;5.70;99.90
53264;DHT22;39153;52.680;6.172;2024-02-23T08:23:51;5.70;99.90
53264;DHT22;39153;52.680;6.172;2024-02-23T08:26:17;5.90;99.90
53264;DHT22;39153;52.680;6.172;2024-02-23T08:28:43;5.80;99.90
53264;DHT22;39153;52.680;6.172;2024-02-23T08:31:09;5.90;99.90
53264;DHT22;39153;52.680;6.172;2024-02-23T08:33:34;5.80;99.90
53264;DHT22;39153;52.680;6.172;2024-02-23T08:36:00;5.90;99.90
53264;DHT22;39153;52.680;6.172;2024-02-23T08:38:26;6.00;99.90
53264;DHT22;39153;52.680;6.172;2024-02-23T08:40:51;6.00;99.90
53264;DHT22;39153;52.680;6.172;2024-02-23T08:43:17;6.10;99.90
53264;DHT22;39153;52.680;6.172;2024-02-23T08:45:43;6.10;99.90
53264;DHT22;39153;52.680;6.172;2024-02-23T08:48:09;6.20;99.90
53264;DHT22;39153;52.680;6.172;2024-02-23T08:50:34;6.60;99.90
53264;DHT22;39153;52.680;6.172;2024-02-23T08:53:00;6.50;99.90
53264;DHT22;39153;52.680;6.172;2024-02-23T08:55:26;6.80;99.90
53264;DHT22;39153;52.680;6.172;2024-02-23T08:57:51;6.60;99.90
53264;DHT22;39153;52.680;6.172;2024-02-23T09:00:17;6.50;99.90
53264;DHT22;39153;52.680;6.172;2024-02-23T09:02:43;6.60;99.90
53264;DHT22;39153;52.680;6.172;2024-02-23T09:05:09;6.60;99.90
53264;DHT22;39153;52.680;6.172;2024-02-23T09:07:35;6.50;99.90
53264;DHT22;39153;52.680;6.172;2024-02-23T09:10:01;6.50;99.90
53264;DHT22;39153;52.680;6.172;2024-02-23T09:12:29;6.50;99.90
53264;DHT22;39153;52.680;6.172;2024-02-23T09:14:55;6.60;99.90
53264;DHT22;39153;52.680;6.172;2024-02-23T09:17:20;6.60;99.90
53264;DHT22;39153;52.680;6.172;2024-02-23T09:19:46;6.50;99.90
53264;DHT22;39153;52.680;6.172;2024-02-23T09:22:12;6.60;99.90
53264;DHT22;39153;52.680;6.172;2024-02-23T09:24:41;6.80;99.90
53264;DHT22;39153;52.680;6.172;2024-02-23T09:27:07;6.70;99.90
53264;DHT22;39153;52.680;6.172;2024-02-23T09:29:33;6.80;99.90
53264;DHT22;39153;52.680;6.172;2024-02-23T09:31:59;6.80;99.90
53264;DHT22;39153;52.680;6.172;2024-02-23T09:34:25;6.80;99.90
53264;DHT22;39153;52.680;6.172;2024-02-23T09:36:51;6.90;99.90
53264;DHT22;39153;52.680;6.172;2024-02-23T09:39:17;6.90;99.90
53264;DHT22;39153;52.680;6.172;2024-02-23T09:41:43;6.90;99.90
53264;DHT22;39153;52.680;6.172;2024-02-23T09:44:09;6.90;99.90
53264;DHT22;39153;52.680;6.172;2024-02-23T09:46:37;7.00;99.90
53264;DHT22;39153;52.680;6.172;2024-02-23T09:49:03;7.10;99.90
53264;DHT22;39153;52.680;6.172;2024-02-23T09:51:31;7.00;99.90
53264;DHT22;39153;52.680;6.172;2024-02-23T09:53:59;7.00;99.90
53264;DHT22;39153;52.680;6.172;2024-02-23T09:56:27;6.90;99.90
53264;DHT22;39153;52.680;6.172;2024-02-23T09:58:55;6.90;99.90
53264;DHT22;39153;52.680;6.172;2024-02-23T10:01:28;6.90;99.90
53264;DHT22;39153;52.680;6.172;2024-02-23T10:03:58;7.00;99.90
53264;DHT22;39153;52.680;6.172;2024-02-23T10:06:27;6.90;99.90
53264;DHT22;39153;52.680;6.172;2024-02-23T10:08:53;6.80;99.90
53264;DHT22;39153;52.680;6.172;2024-02-23T10:11:22;6.80;99.90
53264;DHT22;39153;52.680;6.172;2024-02-23T10:13:49;6.80;99.90
53264;DHT22;39153;52.680;6.172;2024-02-23T10:16:19;6.80;99.90
53264;DHT22;39153;52.680;6.172;2024-02-23T10:18:47;6.80;99.90
53264;DHT22;39153;52.680;6.172;2024-02-23T10:21:15;6.80;99.90
53264;DHT22;39153;52.680;6.172;2024-02-23T10:23:41;6.80;99.90
53264;DHT22;39153;52.680;6.172;2024-02-23T10:26:07;6.80;99.90
53264;DHT22;39153;52.680;6.172;2024-02-23T10:28:34;6.80;99.90
53264;DHT22;39153;52.680;6.172;2024-02-23T10:31:00;6.80;99.90
53264;DHT22;39153;52.680;6.172;2024-02-23T10:33:27;6.90;99.90
53264;DHT22;39153;52.680;6.172;2024-02-23T10:35:56;7.00;99.90
53264;DHT22;39153;52.680;6.172;2024-02-23T10:38:26;7.10;99.90
53264;DHT22;39153;52.680;6.172;2024-02-23T10:40:55;7.10;99.90
53264;DHT22;39153;52.680;6.172;2024-02-23T10:43:33;7.10;99.90
53264;DHT22;39153;52.680;6.172;2024-02-23T10:45:59;7.10;99.90
53264;DHT22;39153;52.680;6.172;2024-02-23T10:48:28;7.10;99.90
53264;DHT22;39153;52.680;6.172;2024-02-23T10:50:55;7.10;99.90
53264;DHT22;39153;52.680;6.172;2024-02-23T10:53:23;7.10;99.90
53264;DHT22;39153;52.680;6.172;2024-02-23T10:55:56;7.10;99.90
53264;DHT22;39153;52.680;6.172;2024-02-23T10:58:23;7.10;99.90
53264;DHT22;39153;52.680;6.172;2024-02-23T11:00:49;7.20;99.90
53264;DHT22;39153;52.680;6.172;2024-02-23T11:03:16;7.30;99.90
53264;DHT22;39153;52.680;6.172;2024-02-23T11:05:42;7.20;99.90
53264;DHT22;39153;52.680;6.172;2024-02-23T11:08:08;7.30;99.90
53264;DHT22;39153;52.680;6.172;2024-02-23T11:10:48;7.20;99.90
53264;DHT22;39153;52.680;6.172;2024-02-23T11:13:15;7.30;99.90
53264;DHT22;39153;52.680;6.172;2024-02-23T11:15:42;7.30;99.90
53264;DHT22;39153;52.680;6.172;2024-02-23T11:18:28;7.20;99.90
53264;DHT22;39153;52.680;6.172;2024-02-23T11:20:55;7.20;99.90
53264;DHT22;39153;52.680;6.172;2024-02-23T11:23:22;7.10;99.90
53264;DHT22;39153;52.680;6.172;2024-02-23T11:26:04;7.20;99.90
53264;DHT22;39153;52.680;6.172;2024-02-23T11:28:30;7.30;99.90
53264;DHT22;39153;52.680;6.172;2024-02-23T11:30:57;7.20;99.90
53264;DHT22;39153;52.680;6.172;2024-02-23T11:33:28;7.20;99.90
53264;DHT22;39153;52.680;6.172;2024-02-23T11:36:07;7.20;99.90
53264;DHT22;39153;52.680;6.172;2024-02-23T11:38:33;7.20;99.90
53264;DHT22;39153;52.680;6.172;2024-02-23T11:41:00;7.20;99.90
53264;DHT22;39153;52.680;6.172;2024-02-23T11:43:27;7.30;99.90
53264;DHT22;39153;52.680;6.172;2024-02-23T11:45:53;7.30;99.90
53264;DHT22;39153;52.680;6.172;2024-02-23T11:48:19;7.30;99.90
53264;DHT22;39153;52.680;6.172;2024-02-23T11:50:48;7.30;99.90
53264;DHT22;39153;52.680;6.172;2024-02-23T11:53:14;7.40;99.90
53264;DHT22;39153;52.680;6.172;2024-02-23T11:55:39;7.40;99.90
53264;DHT22;39153;52.680;6.172;2024-02-23T11:58:05;7.40;99.90
53264;DHT22;39153;52.680;6.172;2024-02-23T12:00:32;7.40;99.90
53264;DHT22;39153;52.680;6.172;2024-02-23T12:02:58;7.50;99.90
53264;DHT22;39153;52.680;6.172;2024-02-23T12:05:24;7.40;99.90
53264;DHT22;39153;52.680;6.172;2024-02-23T12:07:50;7.40;99.90
53264;DHT22;39153;52.680;6.172;2024-02-23T12:10:16;7.50;99.90
53264;DHT22;39153;52.680;6.172;2024-02-23T12:12:42;7.50;99.90
53264;DHT22;39153;52.680;6.172;2024-02-23T12:15:08;7.40;99.90
53264;DHT22;39153;52.680;6.172;2024-02-23T12:17:36;7.40;99.90
53264;DHT22;39153;52.680;6.172;2024-02-23T12:20:03;7.40;99.90
53264;DHT22;39153;52.680;6.172;2024-02-23T12:22:29;7.40;99.90
53264;DHT22;39153;52.680;6.172;2024-02-23T12:24:58;7.40;99.90
53264;DHT22;39153;52.680;6.172;2024-02-23T12:27:25;7.40;99.90
53264;DHT22;39153;52.680;6.172;2024-02-23T12:29:55;7.50;99.90
53264;DHT22;39153;52.680;6.172;2024-02-23T12:32:21;7.40;99.90
53264;DHT22;39153;52.680;6.172;2024-02-23T12:34:47;7.40;99.90
53264;DHT22;39153;52.680;6.172;2024-02-23T12:37:17;7.50;99.90
53264;DHT22;39153;52.680;6.172;2024-02-23T12:39:43;7.50;99.90
53264;DHT22;39153;52.680;6.172;2024-02-23T12:42:09;7.60;99.90
53264;DHT22;39153;52.680;6.172;2024-02-23T12:44:35;7.60;99.90
53264;DHT22;39153;52.680;6.172;2024-02-23T12:47:01;7.60;99.90
53264;DHT22;39153;52.680;6.172;2024-02-23T12:49:28;7.60;99.90
53264;DHT22;39153;52.680;6.172;2024-02-23T12:51:53;7.60;99.90
53264;DHT22;39153;52.680;6.172;2024-02-23T12:54:19;7.60;99.90
53264;DHT22;39153;52.680;6.172;2024-02-23T12:56:45;7.50;99.90
53264;DHT22;39153;52.680;6.172;2024-02-23T12:59:11;7.60;99.90
53264;DHT22;39153;52.680;6.172;2024-02-23T13:01:37;7.60;99.90
53264;DHT22;39153;52.680;6.172;2024-02-23T13:04:04;7.70;99.90
53264;DHT22;39153;52.680;6.172;2024-02-23T13:06:39;8.00;99.90
53264;DHT22;39153;52.680;6.172;2024-02-23T13:09:05;7.90;99.90
53264;DHT22;39153;52.680;6.172;2024-02-23T13:11:34;8.00;99.90
53264;DHT22;39153;52.680;6.172;2024-02-23T13:14:00;8.10;99.90
53264;DHT22;39153;52.680;6.172;2024-02-23T13:16:27;8.20;99.90
53264;DHT22;39153;52.680;6.172;2024-02-23T13:18:53;8.20;99.90
53264;DHT22;39153;52.680;6.172;2024-02-23T13:21:18;8.20;99.90
53264;DHT22;39153;52.680;6.172;2024-02-23T13:23:44;8.20;99.90
53264;DHT22;39153;52.680;6.172;2024-02-23T13:26:10;8.10;99.90
53264;DHT22;39153;52.680;6.172;2024-02-23T13:28:36;8.10;99.90
53264;DHT22;39153;52.680;6.172;2024-02-23T13:31:02;8.10;99.90
53264;DHT22;39153;52.680;6.172;2024-02-23T13:33:28;8.20;99.90
53264;DHT22;39153;52.680;6.172;2024-02-23T13:35:54;8.10;99.90
53264;DHT22;39153;52.680;6.172;2024-02-23T13:38:21;8.10;99.90
53264;DHT22;39153;52.680;6.172;2024-02-23T13:40:47;8.10;99.90
53264;DHT22;39153;52.680;6.172;2024-02-23T13:43:13;8.10;99.90
53264;DHT22;39153;52.680;6.172;2024-02-23T13:45:52;8.10;99.90
53264;DHT22;39153;52.680;6.172;2024-02-23T13:48:19;8.00;99.90
53264;DHT22;39153;52.680;6.172;2024-02-23T13:50:48;8.00;99.90
53264;DHT22;39153;52.680;6.172;2024-02-23T13:53:14;8.00;99.90
53264;DHT22;39153;52.680;6.172;2024-02-23T13:55:41;8.00;99.90
53264;DHT22;39153;52.680;6.172;2024-02-23T13:58:10;8.00;99.90
53264;DHT22;39153;52.680;6.172;2024-02-23T14:00:36;8.00;99.90
53264;DHT22;39153;52.680;6.172;2024-02-23T14:03:01;8.20;99.90
53264;DHT22;39153;52.680;6.172;2024-02-23T14:05:27;8.10;99.90
53264;DHT22;39153;52.680;6.172;2024-02-23T14:07:54;8.00;99.90
53264;DHT22;39153;52.680;6.172;2024-02-23T14:10:20;8.10;99.90
53264;DHT22;39153;52.680;6.172;2024-02-23T14:12:45;8.10;99.90
53264;DHT22;39153;52.680;6.172;2024-02-23T14:15:11;8.10;99.90
53264;DHT22;39153;52.680;6.172;2024-02-23T14:17:38;8.10;99.90
53264;DHT22;39153;52.680;6.172;2024-02-23T14:20:04;8.10;99.90
53264;DHT22;39153;52.680;6.172;2024-02-23T14:22:33;8.20;99.90
53264;DHT22;39153;52.680;6.172;2024-02-23T14:24:58;8.10;99.90
53264;DHT22;39153;52.680;6.172;2024-02-23T14:27:24;8.10;99.90
53264;DHT22;39153;52.680;6.172;2024-02-23T14:29:50;8.20;99.90
53264;DHT22;39153;52.680;6.172;2024-02-23T14:32:18;8.20;99.90
53264;DHT22;39153;52.680;6.172;2024-02-23T14:34:44;8.10;99.90
53264;DHT22;39153;52.680;6.172;2024-02-23T14:37:11;8.20;99.90
53264;DHT22;39153;52.680;6.172;2024-02-23T14:39:37;8.20;99.90
53264;DHT22;39153;52.680;6.172;2024-02-23T14:42:02;8.10;99.90
53264;DHT22;39153;52.680;6.172;2024-02-23T14:44:29;8.20;99.90
53264;DHT22;39153;52.680;6.172;2024-02-23T14:46:55;8.10;99.90
53264;DHT22;39153;52.680;6.172;2024-02-23T14:49:20;8.10;99.90
53264;DHT22;39153;52.680;6.172;2024-02-23T14:51:46;8.10;99.90
53264;DHT22;39153;52.680;6.172;2024-02-23T14:54:14;8.10;99.90
53264;DHT22;39153;52.680;6.172;2024-02-23T14:56:40;8.10;99.90
53264;DHT22;39153;52.680;6.172;2024-02-23T14:59:08;8.20;99.90
53264;DHT22;39153;52.680;6.172;2024-02-23T15:01:39;8.10;99.90
53264;DHT22;39153;52.680;6.172;2024-02-23T15:04:08;8.10;99.90
53264;DHT22;39153;52.680;6.172;2024-02-23T15:06:34;8.10;99.90
53264;DHT22;39153;52.680;6.172;2024-02-23T15:09:00;8.10;99.90
53264;DHT22;39153;52.680;6.172;2024-02-23T15:11:26;8.10;99.90
53264;DHT22;39153;52.680;6.172;2024-02-23T15:13:51;8.00;99.90
53264;DHT22;39153;52.680;6.172;2024-02-23T15:16:27;8.00;99.90
53264;DHT22;39153;52.680;6.172;2024-02-23T15:18:53;8.00;99.90
53264;DHT22;39153;52.680;6.172;2024-02-23T15:21:19;8.00;99.90
53264;DHT22;39153;52.680;6.172;2024-02-23T15:23:45;8.00;99.90
53264;DHT22;39153;52.680;6.172;2024-02-23T15:26:11;8.00;99.90
53264;DHT22;39153;52.680;6.172;2024-02-23T15:28:37;8.00;99.90
53264;DHT22;39153;52.680;6.172;2024-02-23T15:31:03;7.90;99.90
53264;DHT22;39153;52.680;6.172;2024-02-23T15:33:29;8.00;99.90
53264;DHT22;39153;52.680;6.172;2024-02-23T15:35:55;8.00;99.90
53264;DHT22;39153;52.680;6.172;2024-02-23T15:38:21;8.00;99.90
53264;DHT22;39153;52.680;6.172;2024-02-23T15:40:46;8.00;99.90